Portada
METAR-TAF:

METAR-TAF

Aeroports :

Souillac

Briva la Galharda, França

latitud: 45-02-28N, longitud: 001-28-59E, altitud: 311 m

Observació

L'informe es va fer fa 20 minuts, a les 07:00 UTC
Vent 6 kt del Est/Sud-Est
Temperatura 21°C
Humitat 60%
Pressió 1017 hPa
Visibilitat 10 km o més
sense núvols per sota de 1500 mi sense presència de cumulonimbus.

METAR: LFSL 090700Z AUTO 11006KT CAVOK 21/13 Q1017 NOSIG

Hora: 09:20 (07:20 UTC)

Pronòstic

L'informe es va fer fa 2 hores i 20 minuts, a les 05:00 UTC
Pronòstic vàlid del 09 a les 06 UTC al 09 a les 15 UTC
Vent 2 kt amb direcció variable
Visibilitat 10 km o més
sense núvols per sota de 1500 mi sense presència de cumulonimbus.
Evolucionant progressivament
l' 09 a les 11 UTC al 09 a les 13 UTC
Vent 5 kt del Oest

TAF: LFSL 090500Z 0906/0915 VRB02KT CAVOK BECMG 0911/0913 27005KT

Observacions i pronòstics meteorològics de més de 4000 aeroports (METAR i TAF).

Les estacions disponibles són els punts grocs i vermells al mapa.

Posi el ratolí al punt desitjat per veure el nom de l'estació.

Feu clic per veure les observacions i els pronòstics meteorològics.

Per canviar el mapa: feu clic els botons verds amb una creu de color negre per apropar; al botó verd amb un guió per allunyar la imatge; o en les fletxes verdes per a mapes adjacents.


METAR-TAF: